createdAt,value
2023-04-20T00:00:21.073Z,3578.60
2023-04-20T00:02:49.631Z,3580.60
2023-04-20T00:05:16.796Z,3563.60
2023-04-20T00:07:43.751Z,3606.20
2023-04-20T00:10:10.832Z,3574.00
2023-04-20T00:12:37.905Z,3603.20
2023-04-20T00:15:06.673Z,3606.20
2023-04-20T00:17:33.900Z,3615.80
2023-04-20T00:20:02.401Z,3620.60
2023-04-20T00:22:29.260Z,3623.80
2023-04-20T00:24:56.169Z,3279.80
2023-04-20T00:27:23.106Z,3606.40
2023-04-20T00:29:51.058Z,3631.80
2023-04-20T00:32:18.130Z,3369.60
2023-04-20T00:34:45.094Z,3619.00
2023-04-20T00:37:13.542Z,3626.40
2023-04-20T00:39:40.948Z,3623.80
2023-04-20T00:42:10.623Z,3628.60
2023-04-20T00:44:37.541Z,3642.40
2023-04-20T00:47:04.618Z,3637.60
2023-04-20T00:49:33.422Z,3663.20
2023-04-20T00:56:35.632Z,1740.20
2023-04-20T00:59:02.946Z,1757.00
2023-04-20T01:01:30.289Z,3453.00
2023-04-20T01:03:58.774Z,3679.60
2023-04-20T01:06:26.013Z,3674.40
2023-04-20T01:08:53.821Z,3674.40
2023-04-20T01:11:20.774Z,3686.00
2023-04-20T01:13:49.196Z,3386.60
2023-04-20T01:16:16.545Z,3656.80
2023-04-20T01:19:34.609Z,3664.80
2023-04-20T01:22:02.994Z,3655.20
2023-04-20T01:24:31.882Z,3672.80
2023-04-20T01:27:02.284Z,3680.00
2023-04-20T01:29:29.227Z,3666.40
2023-04-20T01:31:56.198Z,3684.00
2023-04-20T01:34:24.925Z,3656.80
2023-04-20T01:36:51.923Z,3407.20
2023-04-20T01:39:19.258Z,3488.60
2023-04-20T01:42:00.869Z,3698.80
2023-04-20T01:44:28.052Z,1839.00
2023-04-20T01:46:55.379Z,1791.60
2023-04-20T01:49:22.215Z,1651.00
2023-04-20T01:51:50.186Z,3638.80
2023-04-20T01:54:17.039Z,3700.00
2023-04-20T01:56:44.047Z,2934.40
2023-04-20T01:59:12.421Z,2932.00
2023-04-20T02:06:30.664Z,821.25
2023-04-20T02:08:57.804Z,1523.00
2023-04-20T02:11:24.701Z,1760.00
2023-04-20T02:13:52.012Z,3646.60
2023-04-20T02:16:22.770Z,1745.20
2023-04-20T02:18:49.699Z,3554.80
2023-04-20T02:21:16.769Z,3689.00
2023-04-20T02:23:43.662Z,3484.20
2023-04-20T02:26:10.570Z,3694.00
2023-04-20T02:28:40.570Z,3730.20
2023-04-20T02:31:07.448Z,3684.00
2023-04-20T02:33:35.981Z,3679.20
2023-04-20T02:36:02.938Z,3684.00
2023-04-20T02:38:29.804Z,3678.00
2023-04-20T02:40:56.912Z,621.50
2023-04-20T02:43:23.968Z,1297.00
2023-04-20T02:45:51.608Z,1536.80
2023-04-20T02:48:20.787Z,1882.25
2023-04-20T02:50:49.441Z,1883.00
2023-04-20T02:53:22.031Z,1784.40
2023-04-20T02:55:56.348Z,3710.40
2023-04-20T02:58:32.723Z,3464.80
2023-04-20T03:01:19.609Z,3723.40
2023-04-20T03:03:48.896Z,3708.40
2023-04-20T03:06:17.430Z,1476.80
2023-04-20T03:08:58.342Z,1248.75
2023-04-20T03:11:51.034Z,1645.80
2023-04-20T03:14:50.531Z,2093.60
2023-04-20T03:17:21.055Z,2647.80
2023-04-20T03:19:48.300Z,1650.00
2023-04-20T03:22:16.704Z,1628.40
2023-04-20T03:24:43.797Z,1746.80
2023-04-20T03:27:22.041Z,1725.00
2023-04-20T03:30:01.992Z,2519.00
2023-04-20T03:32:32.597Z,2377.40
2023-04-20T03:35:00.337Z,2652.20
2023-04-20T03:37:29.603Z,1668.80
2023-04-20T03:39:56.690Z,2067.00
2023-04-20T03:42:25.080Z,3003.60
2023-04-20T03:44:52.279Z,1372.20
2023-04-20T03:48:09.600Z,1049.80
2023-04-20T03:50:36.893Z,2845.40
2023-04-20T03:53:06.339Z,2083.40
2023-04-20T03:55:33.248Z,1859.75
2023-04-20T03:58:05.658Z,1308.00
2023-04-20T04:00:41.881Z,3737.40
2023-04-20T04:03:12.684Z,3462.20
2023-04-20T04:05:40.386Z,3735.20
2023-04-20T04:08:08.869Z,3730.20
2023-04-20T04:10:36.450Z,1355.80
2023-04-20T04:14:30.119Z,1788.20
2023-04-20T04:17:00.098Z,1934.00
2023-04-20T04:19:27.202Z,3075.80
2023-04-20T04:21:54.341Z,1632.40
2023-04-20T04:24:29.312Z,1811.00
2023-04-20T04:27:06.645Z,1797.40
2023-04-20T04:29:38.139Z,3747.00
2023-04-20T04:32:08.340Z,3758.80
2023-04-20T04:34:37.823Z,3763.60
2023-04-20T04:37:05.190Z,3752.00
2023-04-20T04:39:42.510Z,3756.40
2023-04-20T04:42:18.116Z,3525.80
2023-04-20T04:44:47.187Z,3742.00
2023-04-20T04:47:20.377Z,3753.00
2023-04-20T04:49:47.312Z,3040.40
2023-04-20T04:52:14.405Z,3449.40
2023-04-20T04:54:42.670Z,3661.60
2023-04-20T04:57:10.073Z,0.25
2023-04-20T04:59:36.957Z,2.50
2023-04-20T05:02:04.227Z,0.00
2023-04-20T05:04:31.320Z,1.00
2023-04-20T05:06:59.934Z,0.00
2023-04-20T05:09:31.243Z,1.00
2023-04-20T05:12:29.366Z,0.50
2023-04-20T05:15:11.657Z,3.00
2023-04-20T05:17:38.530Z,1.67
2023-04-20T05:20:07.448Z,1.00
2023-04-20T05:22:34.366Z,1.00
2023-04-20T05:25:01.576Z,0.25
2023-04-20T05:27:30.244Z,0.75
2023-04-20T05:30:06.428Z,52.00
2023-04-20T05:32:44.018Z,1.00
2023-04-20T05:35:10.919Z,3.00
2023-04-20T05:37:37.858Z,0.00
2023-04-20T05:40:17.702Z,0.00
2023-04-20T05:42:46.327Z,5.00
2023-04-20T05:45:14.204Z,18.00
2023-04-20T05:47:41.258Z,12.75
2023-04-20T05:50:09.886Z,25.00
2023-04-20T05:52:36.787Z,17.75
2023-04-20T05:55:53.419Z,23.50
2023-04-20T05:58:21.757Z,50.00
2023-04-20T06:00:48.720Z,69.40
2023-04-20T06:03:15.745Z,33.75
2023-04-20T06:05:42.862Z,750.00
2023-04-20T06:08:09.853Z,3312.60
2023-04-20T06:10:37.502Z,2624.00
2023-04-20T06:17:12.570Z,3586.00
2023-04-20T06:19:39.485Z,4195.60
2023-04-20T06:22:07.067Z,4149.80
2023-04-20T06:24:34.448Z,2937.00
2023-04-20T06:27:01.378Z,3677.00
2023-04-20T06:29:28.904Z,3654.40
2023-04-20T06:31:55.807Z,4048.00
2023-04-20T06:34:24.069Z,4083.00
2023-04-20T06:36:50.971Z,4087.00
2023-04-20T06:39:18.399Z,4081.20
2023-04-20T06:41:45.361Z,4037.80
2023-04-20T06:44:17.353Z,3905.80
2023-04-20T06:46:44.309Z,3572.20
2023-04-20T06:54:04.739Z,1843.60
2023-04-20T06:56:32.671Z,3608.00
2023-04-20T06:59:00.422Z,3447.80
2023-04-20T07:01:27.269Z,2897.80
2023-04-20T07:04:46.851Z,3323.25
2023-04-20T07:07:15.581Z,3281.40
2023-04-20T07:09:43.932Z,3487.60
2023-04-20T07:12:10.892Z,2791.50
2023-04-20T07:14:38.335Z,2768.40
2023-04-20T07:17:05.272Z,3279.40
2023-04-20T07:19:32.350Z,2812.50
2023-04-20T07:21:59.113Z,3662.25
2023-04-20T07:24:25.902Z,4254.80
2023-04-20T07:26:54.458Z,4135.40
2023-04-20T07:29:21.375Z,4115.60
2023-04-20T07:32:35.646Z,4137.20
2023-04-20T07:35:03.004Z,4004.80
2023-04-20T07:37:30.725Z,3127.40
2023-04-20T07:39:57.656Z,3986.50
2023-04-20T07:43:19.150Z,3997.40
2023-04-20T07:46:22.239Z,3933.40
2023-04-20T07:48:49.636Z,3689.25
2023-04-20T07:51:16.574Z,1951.40
2023-04-20T07:53:44.254Z,3144.20
2023-04-20T07:56:11.193Z,3324.20
2023-04-20T07:58:39.517Z,2591.75
2023-04-20T08:01:06.728Z,2499.40
2023-04-20T08:03:33.951Z,2772.20
2023-04-20T08:06:03.561Z,3467.00
2023-04-20T08:08:30.928Z,2744.80
2023-04-20T08:10:58.667Z,3006.60
2023-04-20T08:13:25.690Z,2515.00
2023-04-20T08:15:54.190Z,3208.00
2023-04-20T08:18:21.474Z,2631.60
2023-04-20T08:20:48.554Z,2669.00
2023-04-20T08:23:15.531Z,2348.00
2023-04-20T08:25:42.979Z,2824.40
2023-04-20T08:28:19.277Z,3532.00
2023-04-20T08:30:51.447Z,3657.40
2023-04-20T08:33:44.248Z,3974.40
2023-04-20T08:36:12.543Z,4061.00
2023-04-20T08:38:43.271Z,4063.00
2023-04-20T08:41:10.349Z,4059.00
2023-04-20T08:43:37.599Z,4139.60
2023-04-20T08:48:57.741Z,4201.60
2023-04-20T08:51:24.665Z,4309.20
2023-04-20T08:53:52.561Z,4072.00
2023-04-20T08:56:20.044Z,1045.20
2023-04-20T08:58:47.757Z,15.75
2023-04-20T09:01:17.676Z,6.25
2023-04-20T09:03:47.104Z,4.00
2023-04-20T09:06:23.508Z,1.25
2023-04-20T09:08:50.514Z,13.00
2023-04-20T09:11:25.661Z,0.75
2023-04-20T09:14:04.094Z,2521.00
2023-04-20T09:16:31.798Z,3061.80
2023-04-20T09:18:59.939Z,4.75
2023-04-20T09:21:28.889Z,2.75
2023-04-20T09:23:58.256Z,22.00
2023-04-20T09:26:25.411Z,22.00
2023-04-20T09:28:52.402Z,10.50
2023-04-20T09:31:20.914Z,6.75
2023-04-20T09:33:57.426Z,3.75
2023-04-20T09:36:24.746Z,0.50
2023-04-20T09:39:05.285Z,0.00
2023-04-20T09:41:35.359Z,0.00
2023-04-20T09:44:03.612Z,23.00
2023-04-20T09:46:32.724Z,3076.00
2023-04-20T09:49:01.297Z,4.75
2023-04-20T09:51:29.573Z,9.00
2023-04-20T09:53:59.096Z,0.00
2023-04-20T09:56:29.147Z,1.00
2023-04-20T09:58:57.481Z,6.25
2023-04-20T10:01:30.790Z,7.00
2023-04-20T10:04:00.121Z,1.00
2023-04-20T10:06:30.245Z,15.50
2023-04-20T10:08:58.615Z,0.00
2023-04-20T10:11:40.536Z,8.50
2023-04-20T10:14:18.733Z,18.00
2023-04-20T10:16:59.088Z,0.00
2023-04-20T10:19:37.839Z,11.00
2023-04-20T10:22:04.946Z,5.50
2023-04-20T10:24:32.440Z,0.00
2023-04-20T10:27:00.809Z,3352.60
2023-04-20T10:29:28.845Z,0.00
2023-04-20T10:31:56.300Z,3070.80
2023-04-20T10:34:30.914Z,3.75
2023-04-20T10:37:08.028Z,1.00
2023-04-20T10:39:35.345Z,0.00
2023-04-20T10:42:04.326Z,0.00
2023-04-20T10:44:31.693Z,1.00
2023-04-20T10:46:58.592Z,0.00
2023-04-20T10:49:27.309Z,11.00
2023-04-20T10:51:57.770Z,11.00
2023-04-20T10:54:25.539Z,8.75
2023-04-20T10:56:53.519Z,9.00
2023-04-20T11:03:31.383Z,3088.00
2023-04-20T11:05:58.871Z,3381.20
2023-04-20T11:08:39.682Z,3088.00
2023-04-20T11:15:01.705Z,5.00
2023-04-20T11:17:33.394Z,3088.20
2023-04-20T11:20:12.084Z,3371.00
2023-04-20T11:22:41.104Z,10.50
2023-04-20T11:26:23.062Z,4.00
2023-04-20T11:28:55.865Z,3409.80
2023-04-20T11:31:23.472Z,3442.00
2023-04-20T11:33:50.586Z,150.60
2023-04-20T11:41:50.994Z,3490.80
2023-04-20T11:44:27.429Z,3460.60
2023-04-20T11:46:55.833Z,3456.40
2023-04-20T11:49:23.776Z,3499.80
2023-04-20T11:51:51.014Z,1.00
2023-04-20T11:54:18.308Z,3478.00
2023-04-20T11:56:48.464Z,0.00
2023-04-20T11:59:15.780Z,1.00
2023-04-20T12:01:42.808Z,1.00
2023-04-20T12:04:09.805Z,0.00
2023-04-20T12:06:38.600Z,1.00
2023-04-20T12:09:05.521Z,1.00
2023-04-20T12:11:32.433Z,0.75
2023-04-20T12:14:00.648Z,0.00
2023-04-20T12:16:27.626Z,2.75
2023-04-20T12:18:54.646Z,0.25
2023-04-20T12:21:22.157Z,5.00
2023-04-20T12:23:49.102Z,1.00
2023-04-20T12:26:17.198Z,0.00
2023-04-20T12:29:10.110Z,3.00
2023-04-20T12:31:37.193Z,3.00
2023-04-20T12:34:04.468Z,0.25
2023-04-20T12:37:22.139Z,2.50
2023-04-20T12:39:49.083Z,3.00
2023-04-20T12:43:31.995Z,1.50
2023-04-20T12:48:42.065Z,4.00
2023-04-20T12:51:09.072Z,0.00
2023-04-20T12:53:36.043Z,0.25
2023-04-20T12:56:02.943Z,0.50
2023-04-20T12:58:29.977Z,0.75
2023-04-20T13:00:57.480Z,1.00
2023-04-20T13:03:27.027Z,0.75
2023-04-20T13:05:55.590Z,2.00
2023-04-20T13:08:22.756Z,3.00
2023-04-20T13:10:49.681Z,0.00
2023-04-20T13:13:17.185Z,3.50
2023-04-20T13:15:44.268Z,1.00
2023-04-20T13:18:11.479Z,13.00
2023-04-20T13:20:40.224Z,0.00
2023-04-20T13:23:07.279Z,10.00
2023-04-20T13:25:34.525Z,11.75
2023-04-20T13:28:03.089Z,9.75
2023-04-20T13:30:30.184Z,9.25
2023-04-20T13:32:58.155Z,4.00
2023-04-20T13:35:26.165Z,6.00
2023-04-20T13:37:54.717Z,4.00
2023-04-20T13:40:22.104Z,0.00
2023-04-20T13:42:49.223Z,0.00
2023-04-20T13:45:17.439Z,8.50
2023-04-20T13:47:44.617Z,8.00
2023-04-20T13:50:11.501Z,4.00
2023-04-20T13:52:38.537Z,9.50
2023-04-20T13:55:07.908Z,0.00
2023-04-20T14:02:01.195Z,3375.60
2023-04-20T14:04:28.104Z,1.00
2023-04-20T14:06:54.995Z,1.00
2023-04-20T14:10:13.887Z,0.00
2023-04-20T14:12:40.811Z,0.00
2023-04-20T14:15:09.054Z,1.67
2023-04-20T14:17:36.043Z,0.00
2023-04-20T14:20:03.031Z,8.75
2023-04-20T14:22:29.955Z,3376.80
2023-04-20T14:24:57.009Z,8.50
2023-04-20T14:27:25.326Z,0.00
2023-04-20T14:29:52.322Z,0.00
2023-04-20T14:32:19.254Z,0.00
2023-04-20T14:34:46.394Z,0.25
2023-04-20T14:37:13.253Z,0.00
2023-04-20T14:39:40.295Z,5.50
2023-04-20T14:42:07.321Z,0.00
2023-04-20T14:44:35.626Z,11.00
2023-04-20T14:47:02.831Z,0.75
2023-04-20T14:49:32.115Z,3.50
2023-04-20T14:51:58.980Z,7.50
2023-04-20T14:54:25.864Z,7.50
2023-04-20T14:56:52.849Z,9.00
2023-04-20T15:00:15.857Z,10.25
2023-04-20T15:02:45.240Z,0.00
2023-04-20T15:06:00.228Z,7.50
2023-04-20T15:08:30.112Z,7.00
2023-04-20T15:15:03.832Z,3.75
2023-04-20T15:17:32.356Z,0.00
2023-04-20T15:19:59.289Z,0.00
2023-04-20T15:22:26.155Z,0.00
2023-04-20T15:24:53.184Z,1.00
2023-04-20T15:27:20.090Z,0.00
2023-04-20T15:29:47.103Z,0.00
2023-04-20T15:32:14.398Z,8.00
2023-04-20T15:34:42.978Z,9.00
2023-04-20T15:37:09.950Z,0.00
2023-04-20T15:40:01.121Z,0.00
2023-04-20T15:42:31.179Z,9.25
2023-04-20T15:44:58.073Z,3462.20
2023-04-20T15:47:24.942Z,14.00
2023-04-20T15:49:53.482Z,3457.40
2023-04-20T15:52:20.346Z,9.00
2023-04-20T15:54:47.511Z,3428.40
2023-04-20T15:57:15.221Z,3466.60
2023-04-20T15:59:42.514Z,3462.40
2023-04-20T16:02:09.460Z,0.50
2023-04-20T16:04:41.712Z,3439.60
2023-04-20T16:07:10.100Z,0.50
2023-04-20T16:09:37.145Z,0.00
2023-04-20T16:12:05.192Z,0.00
2023-04-20T16:14:32.413Z,0.00
2023-04-20T16:17:01.845Z,0.00
2023-04-20T16:19:30.797Z,0.00
2023-04-20T16:21:58.177Z,4.00
2023-04-20T16:24:26.759Z,1.00
2023-04-20T16:26:53.706Z,2.00
2023-04-20T16:29:20.712Z,3.25
2023-04-20T16:31:47.811Z,0.00
2023-04-20T16:34:15.616Z,0.75
2023-04-20T16:36:42.616Z,7.25
2023-04-20T16:39:09.860Z,4.25
2023-04-20T16:41:38.106Z,0.00
2023-04-20T16:44:05.120Z,1.00
2023-04-20T16:46:36.212Z,4.00
2023-04-20T16:49:03.532Z,0.25
2023-04-20T16:51:30.510Z,2.25
2023-04-20T16:53:57.573Z,0.00
2023-04-20T16:56:24.458Z,0.00
2023-04-20T16:58:52.842Z,6.00
2023-04-20T17:01:20.893Z,1.00
2023-04-20T17:03:47.951Z,0.00
2023-04-20T17:06:14.929Z,1.00
2023-04-20T17:08:42.294Z,3.00
2023-04-20T17:11:09.196Z,1.00
2023-04-20T17:13:36.203Z,3.75
2023-04-20T17:16:05.645Z,3.00
2023-04-20T17:18:33.046Z,1.00
2023-04-20T17:21:02.236Z,3.25
2023-04-20T17:23:29.218Z,2.00
2023-04-20T17:25:56.165Z,1.00
2023-04-20T17:28:23.317Z,0.00
2023-04-20T17:30:50.315Z,0.75
2023-04-20T17:33:22.258Z,1.00
2023-04-20T17:35:49.185Z,4.00
2023-04-20T17:38:16.087Z,6.25
2023-04-20T17:40:42.991Z,9.00
2023-04-20T17:43:10.920Z,0.50
2023-04-20T17:45:37.857Z,9.25
2023-04-20T17:48:06.058Z,0.00
2023-04-20T17:50:35.642Z,2.50
2023-04-20T17:53:02.579Z,1.50
2023-04-20T17:55:29.775Z,0.50
2023-04-20T17:57:58.282Z,4.00
2023-04-20T18:00:25.311Z,0.25
2023-04-20T18:02:55.671Z,1.00
2023-04-20T18:05:23.738Z,0.00
2023-04-20T18:07:52.418Z,3.75
2023-04-20T18:10:20.559Z,10.50
2023-04-20T18:12:47.542Z,0.25
2023-04-20T18:15:15.033Z,2.75
2023-04-20T18:17:42.131Z,6.00
2023-04-20T18:20:10.709Z,1.00
2023-04-20T18:22:41.245Z,0.00
2023-04-20T18:25:12.516Z,1.75
2023-04-20T18:27:39.435Z,3.00
2023-04-20T18:30:08.857Z,1.50
2023-04-20T18:32:35.876Z,0.75
2023-04-20T18:35:03.545Z,6.50
2023-04-20T18:37:30.637Z,8.75
2023-04-20T18:39:57.931Z,3.00
2023-04-20T18:42:28.009Z,0.50
2023-04-20T18:44:55.565Z,13.50
2023-04-20T18:47:22.855Z,1.25
2023-04-20T18:49:49.917Z,9.00
2023-04-20T18:52:22.120Z,0.00
2023-04-20T19:00:46.674Z,3482.20
2023-04-20T19:03:14.021Z,0.00
2023-04-20T19:05:41.282Z,5.25
2023-04-20T19:08:08.309Z,4.25
2023-04-20T19:10:35.480Z,7.00
2023-04-20T19:13:02.380Z,3.00
2023-04-20T19:15:29.959Z,11.75
2023-04-20T19:17:58.383Z,5.00
2023-04-20T19:20:26.351Z,1.50
2023-04-20T19:22:53.376Z,0.00
2023-04-20T19:25:23.501Z,5.25
2023-04-20T19:27:50.491Z,5.50
2023-04-20T19:30:17.410Z,5.00
2023-04-20T19:32:44.647Z,3.00
2023-04-20T19:35:13.129Z,11.75
2023-04-20T19:37:40.126Z,0.00
2023-04-20T19:40:08.394Z,1.00
2023-04-20T19:42:36.233Z,1.00
2023-04-20T19:45:03.422Z,2.50
2023-04-20T19:47:30.920Z,0.00
2023-04-20T19:49:57.930Z,1.00
2023-04-20T19:52:26.262Z,1.00
2023-04-20T19:54:53.160Z,0.00
2023-04-20T19:57:20.010Z,3.00
2023-04-20T19:59:47.027Z,4.25
2023-04-20T20:02:13.963Z,2.75
2023-04-20T20:04:40.937Z,0.50
2023-04-20T20:07:07.880Z,4.00
2023-04-20T20:09:36.450Z,3.00
2023-04-20T20:12:04.151Z,3.00
2023-04-20T20:14:31.204Z,0.00
2023-04-20T20:16:58.293Z,0.00
2023-04-20T20:19:25.400Z,2.33
2023-04-20T20:21:52.519Z,0.00
2023-04-20T20:24:21.047Z,1.00
2023-04-20T20:26:49.783Z,0.50
2023-04-20T20:29:16.918Z,3.75
2023-04-20T20:31:44.214Z,4.50
2023-04-20T20:34:11.068Z,2.50
2023-04-20T20:36:38.098Z,4.50
2023-04-20T20:39:05.176Z,0.75
2023-04-20T20:41:32.097Z,2.00
2023-04-20T20:44:00.557Z,2.25
2023-04-20T20:46:30.380Z,5.00
2023-04-20T20:48:58.463Z,3.75
2023-04-20T20:51:27.248Z,1.50
2023-04-20T20:53:54.288Z,4.00
2023-04-20T20:56:23.930Z,0.50
2023-04-20T20:58:51.049Z,7.50
2023-04-20T21:01:19.376Z,14.75
2023-04-20T21:03:46.350Z,8.00
2023-04-20T21:06:13.304Z,11.50
2023-04-20T21:08:40.245Z,7.00
2023-04-20T21:11:07.161Z,18.75
2023-04-20T21:13:34.170Z,18.00
2023-04-20T21:16:01.186Z,9.75
2023-04-20T21:18:29.520Z,18.75
2023-04-20T21:21:06.446Z,1.00
2023-04-20T21:23:33.529Z,2.50
2023-04-20T21:26:00.510Z,13.00
2023-04-20T21:28:27.540Z,8.75
2023-04-20T21:30:54.545Z,6.00
2023-04-20T21:33:22.126Z,7.00
2023-04-20T21:36:40.416Z,8.75
2023-04-20T21:39:07.371Z,9.75
2023-04-20T21:41:34.293Z,12.50
2023-04-20T21:44:01.309Z,7.75
2023-04-20T21:46:28.389Z,14.25
2023-04-20T21:57:20.136Z,2.50
2023-04-20T21:59:47.288Z,0.25
2023-04-20T22:02:14.265Z,12.25
2023-04-20T22:04:41.817Z,3.75
2023-04-20T22:07:08.751Z,3.00
2023-04-20T22:09:35.728Z,1.00
2023-04-20T22:12:03.057Z,20.75
2023-04-20T22:14:31.220Z,8.50
2023-04-20T22:16:58.200Z,7.00
2023-04-20T22:19:25.616Z,6.00
2023-04-20T22:21:52.711Z,9.25
2023-04-20T22:24:19.575Z,10.00
2023-04-20T22:26:46.698Z,12.25
2023-04-20T22:29:14.428Z,6.75
2023-04-20T22:31:42.890Z,6.75
2023-04-20T22:34:24.078Z,3.00
2023-04-20T22:36:51.033Z,4.25
2023-04-20T22:39:18.463Z,6.00
2023-04-20T22:41:45.789Z,1.00
2023-04-20T22:44:13.975Z,4.00
2023-04-20T22:46:59.949Z,11.50
2023-04-20T22:49:27.704Z,6.00
2023-04-20T22:51:54.790Z,7.50
2023-04-20T22:54:21.929Z,2.00
2023-04-20T22:56:49.044Z,6.00
2023-04-20T22:59:16.387Z,10.00
2023-04-20T23:01:47.374Z,9.00
2023-04-20T23:04:16.014Z,13.25
2023-04-20T23:06:43.061Z,3509.80
2023-04-20T23:09:10.625Z,3.00
2023-04-20T23:11:37.516Z,3.75
2023-04-20T23:14:04.667Z,9.00
2023-04-20T23:16:31.951Z,7.50
2023-04-20T23:18:59.432Z,6.75
2023-04-20T23:21:28.515Z,3459.00
2023-04-20T23:23:55.735Z,3506.80
2023-04-20T23:26:23.521Z,3511.00
2023-04-20T23:28:51.111Z,6.50
2023-04-20T23:31:18.310Z,1.00
2023-04-20T23:33:45.515Z,3496.60
2023-04-20T23:36:13.397Z,3424.00
2023-04-20T23:38:42.370Z,3577.00
2023-04-20T23:41:10.123Z,3536.80
2023-04-20T23:43:37.716Z,3582.00
2023-04-20T23:46:05.496Z,3560.20
2023-04-20T23:48:32.924Z,3562.00
2023-04-20T23:51:01.063Z,3580.60
2023-04-20T23:53:28.150Z,3601.40
2023-04-20T23:55:56.700Z,3620.60
2023-04-20T23:58:24.805Z,3613.20
